sensor_id;sensor_type;location;lat;lon;timestamp;P1;durP1;ratioP1;P2;durP2;ratioP2
44276;SDS011;29973;43.742;1.236;2024-01-15T00:01:55;23.88;;;15.85;;
44276;SDS011;29973;43.742;1.236;2024-01-15T00:04:21;29.83;;;15.10;;
44276;SDS011;29973;43.742;1.236;2024-01-15T00:06:47;24.75;;;15.48;;
44276;SDS011;29973;43.742;1.236;2024-01-15T00:09:12;27.38;;;15.35;;
44276;SDS011;29973;43.742;1.236;2024-01-15T00:11:38;25.63;;;17.13;;
44276;SDS011;29973;43.742;1.236;2024-01-15T00:14:04;34.50;;;19.45;;
44276;SDS011;29973;43.742;1.236;2024-01-15T00:16:33;71.10;;;30.13;;
44276;SDS011;29973;43.742;1.236;2024-01-15T00:18:59;73.13;;;31.27;;
44276;SDS011;29973;43.742;1.236;2024-01-15T00:21:25;61.20;;;29.55;;
44276;SDS011;29973;43.742;1.236;2024-01-15T00:23:50;60.63;;;29.58;;
44276;SDS011;29973;43.742;1.236;2024-01-15T00:26:16;46.63;;;25.85;;
44276;SDS011;29973;43.742;1.236;2024-01-15T00:28:42;38.85;;;24.85;;
44276;SDS011;29973;43.742;1.236;2024-01-15T00:31:07;35.22;;;20.60;;
44276;SDS011;29973;43.742;1.236;2024-01-15T00:33:33;25.33;;;14.93;;
44276;SDS011;29973;43.742;1.236;2024-01-15T00:35:59;31.35;;;19.38;;
44276;SDS011;29973;43.742;1.236;2024-01-15T00:38:24;28.05;;;17.33;;
44276;SDS011;29973;43.742;1.236;2024-01-15T00:40:50;34.10;;;18.67;;
44276;SDS011;29973;43.742;1.236;2024-01-15T00:43:16;33.13;;;17.08;;
44276;SDS011;29973;43.742;1.236;2024-01-15T00:45:44;35.20;;;20.67;;
44276;SDS011;29973;43.742;1.236;2024-01-15T00:48:10;34.65;;;20.05;;
44276;SDS011;29973;43.742;1.236;2024-01-15T00:50:35;31.00;;;15.38;;
44276;SDS011;29973;43.742;1.236;2024-01-15T00:53:01;26.27;;;16.00;;
44276;SDS011;29973;43.742;1.236;2024-01-15T00:55:28;28.60;;;16.52;;
44276;SDS011;29973;43.742;1.236;2024-01-15T00:57:54;38.38;;;17.45;;
44276;SDS011;29973;43.742;1.236;2024-01-15T01:00:20;22.58;;;14.40;;
44276;SDS011;29973;43.742;1.236;2024-01-15T01:02:45;26.85;;;16.55;;
44276;SDS011;29973;43.742;1.236;2024-01-15T01:05:11;25.48;;;15.68;;
44276;SDS011;29973;43.742;1.236;2024-01-15T01:07:37;28.00;;;14.93;;
44276;SDS011;29973;43.742;1.236;2024-01-15T01:10:03;27.95;;;15.60;;
44276;SDS011;29973;43.742;1.236;2024-01-15T01:12:29;38.92;;;20.27;;
44276;SDS011;29973;43.742;1.236;2024-01-15T01:14:55;46.63;;;25.02;;
44276;SDS011;29973;43.742;1.236;2024-01-15T01:17:22;44.95;;;22.42;;
44276;SDS011;29973;43.742;1.236;2024-01-15T01:19:49;62.35;;;30.25;;
44276;SDS011;29973;43.742;1.236;2024-01-15T01:22:14;54.40;;;28.13;;
44276;SDS011;29973;43.742;1.236;2024-01-15T01:24:40;41.50;;;19.48;;
44276;SDS011;29973;43.742;1.236;2024-01-15T01:27:06;43.53;;;21.00;;
44276;SDS011;29973;43.742;1.236;2024-01-15T01:29:32;35.13;;;20.35;;
44276;SDS011;29973;43.742;1.236;2024-01-15T01:31:57;35.65;;;18.38;;
44276;SDS011;29973;43.742;1.236;2024-01-15T01:34:23;19.45;;;13.82;;
44276;SDS011;29973;43.742;1.236;2024-01-15T01:36:49;22.55;;;12.77;;
44276;SDS011;29973;43.742;1.236;2024-01-15T01:39:15;34.83;;;16.30;;
44276;SDS011;29973;43.742;1.236;2024-01-15T01:41:40;32.42;;;19.77;;
44276;SDS011;29973;43.742;1.236;2024-01-15T01:44:06;35.85;;;20.15;;
44276;SDS011;29973;43.742;1.236;2024-01-15T01:46:32;39.28;;;21.25;;
44276;SDS011;29973;43.742;1.236;2024-01-15T01:48:59;53.10;;;29.98;;
44276;SDS011;29973;43.742;1.236;2024-01-15T01:51:30;57.33;;;31.05;;
44276;SDS011;29973;43.742;1.236;2024-01-15T01:53:56;50.20;;;26.95;;
44276;SDS011;29973;43.742;1.236;2024-01-15T01:56:21;35.22;;;20.08;;
44276;SDS011;29973;43.742;1.236;2024-01-15T01:58:47;34.20;;;16.20;;
44276;SDS011;29973;43.742;1.236;2024-01-15T02:01:13;33.45;;;19.42;;
44276;SDS011;29973;43.742;1.236;2024-01-15T02:03:41;25.80;;;15.52;;
44276;SDS011;29973;43.742;1.236;2024-01-15T02:06:07;32.30;;;18.65;;
44276;SDS011;29973;43.742;1.236;2024-01-15T02:08:34;33.78;;;18.52;;
44276;SDS011;29973;43.742;1.236;2024-01-15T02:11:00;26.65;;;16.15;;
44276;SDS011;29973;43.742;1.236;2024-01-15T02:13:25;25.88;;;14.88;;
44276;SDS011;29973;43.742;1.236;2024-01-15T02:15:51;25.00;;;14.93;;
44276;SDS011;29973;43.742;1.236;2024-01-15T02:18:17;29.85;;;15.15;;
44276;SDS011;29973;43.742;1.236;2024-01-15T02:20:42;30.48;;;14.63;;
44276;SDS011;29973;43.742;1.236;2024-01-15T02:23:13;30.67;;;15.00;;
44276;SDS011;29973;43.742;1.236;2024-01-15T02:25:40;29.13;;;16.65;;
44276;SDS011;29973;43.742;1.236;2024-01-15T02:28:09;32.08;;;18.77;;
44276;SDS011;29973;43.742;1.236;2024-01-15T02:30:37;34.90;;;21.10;;
44276;SDS011;29973;43.742;1.236;2024-01-15T02:33:09;30.13;;;17.60;;
44276;SDS011;29973;43.742;1.236;2024-01-15T02:35:36;24.38;;;14.98;;
44276;SDS011;29973;43.742;1.236;2024-01-15T02:38:02;25.90;;;14.23;;
44276;SDS011;29973;43.742;1.236;2024-01-15T02:40:28;28.40;;;15.30;;
44276;SDS011;29973;43.742;1.236;2024-01-15T02:42:55;29.80;;;16.02;;
44276;SDS011;29973;43.742;1.236;2024-01-15T02:45:26;20.70;;;13.48;;
44276;SDS011;29973;43.742;1.236;2024-01-15T02:47:52;30.05;;;15.07;;
44276;SDS011;29973;43.742;1.236;2024-01-15T02:50:17;27.77;;;13.65;;
44276;SDS011;29973;43.742;1.236;2024-01-15T02:52:43;26.35;;;14.07;;
44276;SDS011;29973;43.742;1.236;2024-01-15T02:55:09;29.90;;;14.73;;
44276;SDS011;29973;43.742;1.236;2024-01-15T02:57:34;25.65;;;13.20;;
44276;SDS011;29973;43.742;1.236;2024-01-15T03:00:00;24.35;;;13.10;;
44276;SDS011;29973;43.742;1.236;2024-01-15T03:02:26;20.73;;;12.43;;
44276;SDS011;29973;43.742;1.236;2024-01-15T03:04:52;25.45;;;13.40;;
44276;SDS011;29973;43.742;1.236;2024-01-15T03:07:17;22.10;;;13.38;;
44276;SDS011;29973;43.742;1.236;2024-01-15T03:09:43;28.40;;;13.63;;
44276;SDS011;29973;43.742;1.236;2024-01-15T03:12:09;33.80;;;16.52;;
44276;SDS011;29973;43.742;1.236;2024-01-15T03:14:36;29.83;;;17.25;;
44276;SDS011;29973;43.742;1.236;2024-01-15T03:17:01;41.03;;;18.05;;
44276;SDS011;29973;43.742;1.236;2024-01-15T03:19:27;37.08;;;16.63;;
44276;SDS011;29973;43.742;1.236;2024-01-15T03:21:53;19.88;;;12.88;;
44276;SDS011;29973;43.742;1.236;2024-01-15T03:24:20;22.27;;;12.48;;
44276;SDS011;29973;43.742;1.236;2024-01-15T03:26:45;18.23;;;12.23;;
44276;SDS011;29973;43.742;1.236;2024-01-15T03:29:11;26.45;;;13.02;;
44276;SDS011;29973;43.742;1.236;2024-01-15T03:31:37;27.98;;;13.88;;
44276;SDS011;29973;43.742;1.236;2024-01-15T03:34:02;32.85;;;14.15;;
44276;SDS011;29973;43.742;1.236;2024-01-15T03:36:28;31.80;;;16.88;;
44276;SDS011;29973;43.742;1.236;2024-01-15T03:38:54;44.88;;;18.58;;
44276;SDS011;29973;43.742;1.236;2024-01-15T03:41:20;30.42;;;16.63;;
44276;SDS011;29973;43.742;1.236;2024-01-15T03:43:45;42.08;;;18.95;;
44276;SDS011;29973;43.742;1.236;2024-01-15T03:46:11;54.58;;;19.52;;
44276;SDS011;29973;43.742;1.236;2024-01-15T03:48:37;47.20;;;18.88;;
44276;SDS011;29973;43.742;1.236;2024-01-15T03:51:03;44.13;;;18.73;;
44276;SDS011;29973;43.742;1.236;2024-01-15T03:53:29;51.17;;;21.13;;
44276;SDS011;29973;43.742;1.236;2024-01-15T03:55:55;39.85;;;19.70;;
44276;SDS011;29973;43.742;1.236;2024-01-15T03:58:20;48.85;;;22.63;;
44276;SDS011;29973;43.742;1.236;2024-01-15T04:00:46;39.33;;;20.13;;
44276;SDS011;29973;43.742;1.236;2024-01-15T04:03:12;30.27;;;17.40;;
44276;SDS011;29973;43.742;1.236;2024-01-15T04:05:38;31.48;;;14.20;;
44276;SDS011;29973;43.742;1.236;2024-01-15T04:08:03;29.35;;;12.68;;
44276;SDS011;29973;43.742;1.236;2024-01-15T04:10:29;33.05;;;16.00;;
44276;SDS011;29973;43.742;1.236;2024-01-15T04:12:55;32.20;;;15.52;;
44276;SDS011;29973;43.742;1.236;2024-01-15T04:15:21;34.92;;;15.73;;
44276;SDS011;29973;43.742;1.236;2024-01-15T04:17:47;39.58;;;16.17;;
44276;SDS011;29973;43.742;1.236;2024-01-15T04:20:13;41.08;;;16.85;;
44276;SDS011;29973;43.742;1.236;2024-01-15T04:22:38;35.88;;;16.85;;
44276;SDS011;29973;43.742;1.236;2024-01-15T04:25:04;46.92;;;21.00;;
44276;SDS011;29973;43.742;1.236;2024-01-15T04:27:30;39.88;;;18.27;;
44276;SDS011;29973;43.742;1.236;2024-01-15T04:29:56;39.38;;;16.80;;
44276;SDS011;29973;43.742;1.236;2024-01-15T04:32:21;48.28;;;18.33;;
44276;SDS011;29973;43.742;1.236;2024-01-15T04:34:47;59.97;;;23.55;;
44276;SDS011;29973;43.742;1.236;2024-01-15T04:37:13;53.97;;;23.40;;
44276;SDS011;29973;43.742;1.236;2024-01-15T04:39:39;66.93;;;24.38;;
44276;SDS011;29973;43.742;1.236;2024-01-15T04:42:05;60.05;;;23.42;;
44276;SDS011;29973;43.742;1.236;2024-01-15T04:44:30;47.85;;;21.10;;
44276;SDS011;29973;43.742;1.236;2024-01-15T04:46:56;53.55;;;20.33;;
44276;SDS011;29973;43.742;1.236;2024-01-15T04:49:22;47.15;;;18.50;;
44276;SDS011;29973;43.742;1.236;2024-01-15T04:51:47;42.72;;;16.35;;
44276;SDS011;29973;43.742;1.236;2024-01-15T04:54:13;78.43;;;17.05;;
44276;SDS011;29973;43.742;1.236;2024-01-15T04:56:42;72.90;;;19.10;;
44276;SDS011;29973;43.742;1.236;2024-01-15T04:59:09;69.72;;;19.75;;
44276;SDS011;29973;43.742;1.236;2024-01-15T05:01:35;104.10;;;23.73;;
44276;SDS011;29973;43.742;1.236;2024-01-15T05:04:01;64.50;;;21.98;;
44276;SDS011;29973;43.742;1.236;2024-01-15T05:06:27;54.47;;;23.38;;
44276;SDS011;29973;43.742;1.236;2024-01-15T05:08:53;72.60;;;24.48;;
44276;SDS011;29973;43.742;1.236;2024-01-15T05:11:19;66.15;;;24.60;;
44276;SDS011;29973;43.742;1.236;2024-01-15T05:13:44;65.85;;;23.92;;
44276;SDS011;29973;43.742;1.236;2024-01-15T05:16:10;60.70;;;22.00;;
44276;SDS011;29973;43.742;1.236;2024-01-15T05:18:36;65.82;;;24.13;;
44276;SDS011;29973;43.742;1.236;2024-01-15T05:21:04;65.00;;;23.17;;
44276;SDS011;29973;43.742;1.236;2024-01-15T05:23:34;77.72;;;23.75;;
44276;SDS011;29973;43.742;1.236;2024-01-15T05:25:59;108.10;;;24.52;;
44276;SDS011;29973;43.742;1.236;2024-01-15T05:28:25;61.58;;;21.90;;
44276;SDS011;29973;43.742;1.236;2024-01-15T05:30:51;74.15;;;22.92;;
44276;SDS011;29973;43.742;1.236;2024-01-15T05:33:17;68.28;;;23.85;;
44276;SDS011;29973;43.742;1.236;2024-01-15T05:35:42;56.72;;;22.33;;
44276;SDS011;29973;43.742;1.236;2024-01-15T05:38:08;69.25;;;22.42;;
44276;SDS011;29973;43.742;1.236;2024-01-15T05:40:34;57.40;;;20.80;;
44276;SDS011;29973;43.742;1.236;2024-01-15T05:42:59;48.35;;;20.85;;
44276;SDS011;29973;43.742;1.236;2024-01-15T05:45:30;97.90;;;25.88;;
44276;SDS011;29973;43.742;1.236;2024-01-15T05:47:55;92.43;;;25.02;;
44276;SDS011;29973;43.742;1.236;2024-01-15T05:50:22;121.47;;;24.40;;
44276;SDS011;29973;43.742;1.236;2024-01-15T05:52:47;80.15;;;23.27;;
44276;SDS011;29973;43.742;1.236;2024-01-15T05:55:13;131.15;;;24.90;;
44276;SDS011;29973;43.742;1.236;2024-01-15T05:57:39;60.13;;;22.70;;
44276;SDS011;29973;43.742;1.236;2024-01-15T06:00:05;73.13;;;21.73;;
44276;SDS011;29973;43.742;1.236;2024-01-15T06:02:31;68.63;;;23.50;;
44276;SDS011;29973;43.742;1.236;2024-01-15T06:04:58;106.63;;;26.27;;
44276;SDS011;29973;43.742;1.236;2024-01-15T06:07:24;161.52;;;27.25;;
44276;SDS011;29973;43.742;1.236;2024-01-15T06:09:50;175.15;;;25.98;;
44276;SDS011;29973;43.742;1.236;2024-01-15T06:12:15;195.40;;;27.58;;
44276;SDS011;29973;43.742;1.236;2024-01-15T06:14:41;218.60;;;28.70;;
44276;SDS011;29973;43.742;1.236;2024-01-15T06:17:07;78.68;;;26.23;;
44276;SDS011;29973;43.742;1.236;2024-01-15T06:19:33;160.02;;;37.92;;
44276;SDS011;29973;43.742;1.236;2024-01-15T06:21:59;96.25;;;34.83;;
44276;SDS011;29973;43.742;1.236;2024-01-15T06:24:24;290.48;;;74.88;;
44276;SDS011;29973;43.742;1.236;2024-01-15T06:26:50;182.45;;;57.30;;
44276;SDS011;29973;43.742;1.236;2024-01-15T06:29:16;133.30;;;45.30;;
44276;SDS011;29973;43.742;1.236;2024-01-15T06:31:42;117.88;;;39.00;;
44276;SDS011;29973;43.742;1.236;2024-01-15T06:34:07;95.15;;;38.15;;
44276;SDS011;29973;43.742;1.236;2024-01-15T06:36:33;111.22;;;35.00;;
44276;SDS011;29973;43.742;1.236;2024-01-15T06:38:59;171.75;;;35.22;;
44276;SDS011;29973;43.742;1.236;2024-01-15T06:41:24;178.80;;;36.58;;
44276;SDS011;29973;43.742;1.236;2024-01-15T06:43:50;204.60;;;35.72;;
44276;SDS011;29973;43.742;1.236;2024-01-15T06:46:22;186.85;;;34.15;;
44276;SDS011;29973;43.742;1.236;2024-01-15T06:48:48;271.85;;;33.42;;
44276;SDS011;29973;43.742;1.236;2024-01-15T06:51:15;327.52;;;65.43;;
44276;SDS011;29973;43.742;1.236;2024-01-15T06:53:41;144.30;;;36.50;;
44276;SDS011;29973;43.742;1.236;2024-01-15T06:56:07;126.57;;;40.88;;
44276;SDS011;29973;43.742;1.236;2024-01-15T06:58:33;110.35;;;35.40;;
44276;SDS011;29973;43.742;1.236;2024-01-15T07:00:59;180.48;;;33.30;;
44276;SDS011;29973;43.742;1.236;2024-01-15T07:03:25;231.13;;;30.90;;
44276;SDS011;29973;43.742;1.236;2024-01-15T07:05:50;86.32;;;27.45;;
44276;SDS011;29973;43.742;1.236;2024-01-15T07:08:16;138.02;;;28.48;;
44276;SDS011;29973;43.742;1.236;2024-01-15T07:10:42;116.00;;;31.52;;
44276;SDS011;29973;43.742;1.236;2024-01-15T07:13:07;121.32;;;39.00;;
44276;SDS011;29973;43.742;1.236;2024-01-15T07:15:33;148.43;;;38.92;;
44276;SDS011;29973;43.742;1.236;2024-01-15T07:17:59;169.80;;;36.85;;
44276;SDS011;29973;43.742;1.236;2024-01-15T07:20:25;168.25;;;38.72;;
44276;SDS011;29973;43.742;1.236;2024-01-15T07:22:51;122.25;;;35.67;;
44276;SDS011;29973;43.742;1.236;2024-01-15T07:25:16;99.20;;;30.08;;
44276;SDS011;29973;43.742;1.236;2024-01-15T07:27:42;97.72;;;29.98;;
44276;SDS011;29973;43.742;1.236;2024-01-15T07:30:10;92.88;;;29.23;;
44276;SDS011;29973;43.742;1.236;2024-01-15T07:32:36;250.23;;;36.47;;
44276;SDS011;29973;43.742;1.236;2024-01-15T07:35:02;100.95;;;30.55;;
44276;SDS011;29973;43.742;1.236;2024-01-15T07:37:29;170.73;;;32.40;;
44276;SDS011;29973;43.742;1.236;2024-01-15T07:39:54;134.30;;;33.60;;
44276;SDS011;29973;43.742;1.236;2024-01-15T07:42:20;142.07;;;34.22;;
44276;SDS011;29973;43.742;1.236;2024-01-15T07:44:46;221.07;;;34.80;;
44276;SDS011;29973;43.742;1.236;2024-01-15T07:47:12;95.28;;;28.35;;
44276;SDS011;29973;43.742;1.236;2024-01-15T07:49:37;115.75;;;27.42;;
44276;SDS011;29973;43.742;1.236;2024-01-15T07:52:03;127.97;;;30.10;;
44276;SDS011;29973;43.742;1.236;2024-01-15T07:54:30;175.60;;;32.15;;
44276;SDS011;29973;43.742;1.236;2024-01-15T07:56:57;216.93;;;34.92;;
44276;SDS011;29973;43.742;1.236;2024-01-15T07:59:26;180.43;;;32.70;;
44276;SDS011;29973;43.742;1.236;2024-01-15T08:01:52;183.95;;;33.85;;
44276;SDS011;29973;43.742;1.236;2024-01-15T08:04:18;175.73;;;34.58;;
44276;SDS011;29973;43.742;1.236;2024-01-15T08:06:44;112.82;;;31.92;;
44276;SDS011;29973;43.742;1.236;2024-01-15T08:09:10;254.45;;;36.40;;
44276;SDS011;29973;43.742;1.236;2024-01-15T08:11:41;118.72;;;32.90;;
44276;SDS011;29973;43.742;1.236;2024-01-15T08:14:07;162.43;;;37.20;;
44276;SDS011;29973;43.742;1.236;2024-01-15T08:16:33;145.40;;;33.63;;
44276;SDS011;29973;43.742;1.236;2024-01-15T08:18:59;134.20;;;36.30;;
44276;SDS011;29973;43.742;1.236;2024-01-15T08:21:25;113.68;;;32.92;;
44276;SDS011;29973;43.742;1.236;2024-01-15T08:23:53;166.35;;;35.85;;
44276;SDS011;29973;43.742;1.236;2024-01-15T08:26:19;136.00;;;35.92;;
44276;SDS011;29973;43.742;1.236;2024-01-15T08:28:44;104.60;;;34.08;;
44276;SDS011;29973;43.742;1.236;2024-01-15T08:31:10;164.23;;;35.20;;
44276;SDS011;29973;43.742;1.236;2024-01-15T08:33:37;125.68;;;33.65;;
44276;SDS011;29973;43.742;1.236;2024-01-15T08:36:03;140.07;;;33.42;;
44276;SDS011;29973;43.742;1.236;2024-01-15T08:38:29;213.10;;;33.90;;
44276;SDS011;29973;43.742;1.236;2024-01-15T08:40:54;145.55;;;33.40;;
44276;SDS011;29973;43.742;1.236;2024-01-15T08:43:23;163.40;;;33.33;;
44276;SDS011;29973;43.742;1.236;2024-01-15T08:45:49;143.02;;;33.60;;
44276;SDS011;29973;43.742;1.236;2024-01-15T08:48:16;150.75;;;34.00;;
44276;SDS011;29973;43.742;1.236;2024-01-15T08:50:41;142.40;;;30.63;;
44276;SDS011;29973;43.742;1.236;2024-01-15T08:53:07;161.55;;;30.92;;
44276;SDS011;29973;43.742;1.236;2024-01-15T08:55:33;164.80;;;31.48;;
44276;SDS011;29973;43.742;1.236;2024-01-15T08:57:58;146.98;;;32.25;;
44276;SDS011;29973;43.742;1.236;2024-01-15T09:00:24;152.88;;;31.60;;
44276;SDS011;29973;43.742;1.236;2024-01-15T09:02:50;111.68;;;30.73;;
44276;SDS011;29973;43.742;1.236;2024-01-15T09:05:15;150.55;;;31.58;;
44276;SDS011;29973;43.742;1.236;2024-01-15T09:07:41;170.27;;;31.30;;
44276;SDS011;29973;43.742;1.236;2024-01-15T09:10:07;139.68;;;31.05;;
44276;SDS011;29973;43.742;1.236;2024-01-15T09:12:33;144.82;;;30.02;;
44276;SDS011;29973;43.742;1.236;2024-01-15T09:14:58;137.45;;;30.00;;
44276;SDS011;29973;43.742;1.236;2024-01-15T09:17:24;124.80;;;30.75;;
44276;SDS011;29973;43.742;1.236;2024-01-15T09:19:50;121.78;;;31.42;;
44276;SDS011;29973;43.742;1.236;2024-01-15T09:22:15;91.22;;;30.38;;
44276;SDS011;29973;43.742;1.236;2024-01-15T09:24:45;111.47;;;33.22;;
44276;SDS011;29973;43.742;1.236;2024-01-15T09:27:15;100.55;;;33.65;;
44276;SDS011;29973;43.742;1.236;2024-01-15T09:29:41;98.65;;;33.25;;
44276;SDS011;29973;43.742;1.236;2024-01-15T09:32:08;87.25;;;32.50;;
44276;SDS011;29973;43.742;1.236;2024-01-15T09:34:33;94.68;;;30.88;;
44276;SDS011;29973;43.742;1.236;2024-01-15T09:36:59;92.32;;;30.25;;
44276;SDS011;29973;43.742;1.236;2024-01-15T09:39:25;87.00;;;29.38;;
44276;SDS011;29973;43.742;1.236;2024-01-15T09:41:52;84.72;;;29.55;;
44276;SDS011;29973;43.742;1.236;2024-01-15T09:44:19;99.50;;;32.13;;
44276;SDS011;29973;43.742;1.236;2024-01-15T09:46:45;87.35;;;29.83;;
44276;SDS011;29973;43.742;1.236;2024-01-15T09:49:11;78.25;;;28.58;;
44276;SDS011;29973;43.742;1.236;2024-01-15T09:51:37;82.90;;;28.85;;
44276;SDS011;29973;43.742;1.236;2024-01-15T09:54:04;79.45;;;29.17;;
44276;SDS011;29973;43.742;1.236;2024-01-15T09:56:30;100.75;;;33.50;;
44276;SDS011;29973;43.742;1.236;2024-01-15T09:58:56;107.40;;;30.70;;
44276;SDS011;29973;43.742;1.236;2024-01-15T10:01:23;93.80;;;31.00;;
44276;SDS011;29973;43.742;1.236;2024-01-15T10:03:50;95.38;;;31.58;;
44276;SDS011;29973;43.742;1.236;2024-01-15T10:06:16;90.68;;;30.35;;
44276;SDS011;29973;43.742;1.236;2024-01-15T10:08:43;97.05;;;31.70;;
44276;SDS011;29973;43.742;1.236;2024-01-15T10:11:13;109.53;;;33.08;;
44276;SDS011;29973;43.742;1.236;2024-01-15T10:13:39;95.03;;;32.50;;
44276;SDS011;29973;43.742;1.236;2024-01-15T10:16:05;115.85;;;34.40;;
44276;SDS011;29973;43.742;1.236;2024-01-15T10:18:32;103.22;;;33.03;;
44276;SDS011;29973;43.742;1.236;2024-01-15T10:20:57;96.47;;;32.45;;
44276;SDS011;29973;43.742;1.236;2024-01-15T10:23:24;91.05;;;32.83;;
44276;SDS011;29973;43.742;1.236;2024-01-15T10:25:49;104.05;;;34.17;;
44276;SDS011;29973;43.742;1.236;2024-01-15T10:28:16;100.13;;;32.33;;
44276;SDS011;29973;43.742;1.236;2024-01-15T10:30:44;95.75;;;32.60;;
44276;SDS011;29973;43.742;1.236;2024-01-15T10:33:10;94.47;;;32.13;;
44276;SDS011;29973;43.742;1.236;2024-01-15T10:35:37;90.78;;;32.13;;
44276;SDS011;29973;43.742;1.236;2024-01-15T10:38:03;90.82;;;33.30;;
44276;SDS011;29973;43.742;1.236;2024-01-15T10:40:31;88.90;;;31.20;;
44276;SDS011;29973;43.742;1.236;2024-01-15T10:42:57;87.90;;;31.77;;
44276;SDS011;29973;43.742;1.236;2024-01-15T10:45:23;82.00;;;30.38;;
44276;SDS011;29973;43.742;1.236;2024-01-15T10:47:48;75.80;;;29.58;;
44276;SDS011;29973;43.742;1.236;2024-01-15T10:50:14;81.30;;;30.60;;
44276;SDS011;29973;43.742;1.236;2024-01-15T10:52:41;79.20;;;30.00;;
44276;SDS011;29973;43.742;1.236;2024-01-15T10:55:20;74.97;;;29.45;;
44276;SDS011;29973;43.742;1.236;2024-01-15T10:57:46;87.70;;;32.70;;
44276;SDS011;29973;43.742;1.236;2024-01-15T11:00:14;70.75;;;30.25;;
44276;SDS011;29973;43.742;1.236;2024-01-15T11:02:41;89.00;;;32.15;;
44276;SDS011;29973;43.742;1.236;2024-01-15T11:05:13;77.78;;;31.92;;
44276;SDS011;29973;43.742;1.236;2024-01-15T11:07:39;77.43;;;31.08;;
44276;SDS011;29973;43.742;1.236;2024-01-15T11:10:06;79.15;;;30.90;;
44276;SDS011;29973;43.742;1.236;2024-01-15T11:12:35;80.18;;;32.63;;
44276;SDS011;29973;43.742;1.236;2024-01-15T11:15:02;83.82;;;31.60;;
44276;SDS011;29973;43.742;1.236;2024-01-15T11:20:24;69.57;;;30.30;;
44276;SDS011;29973;43.742;1.236;2024-01-15T11:22:49;74.35;;;30.73;;
44276;SDS011;29973;43.742;1.236;2024-01-15T11:25:15;72.75;;;30.52;;
44276;SDS011;29973;43.742;1.236;2024-01-15T11:27:47;74.72;;;32.85;;
44276;SDS011;29973;43.742;1.236;2024-01-15T11:30:18;71.18;;;30.00;;
44276;SDS011;29973;43.742;1.236;2024-01-15T11:32:47;75.82;;;32.22;;
44276;SDS011;29973;43.742;1.236;2024-01-15T11:35:13;73.50;;;32.08;;
44276;SDS011;29973;43.742;1.236;2024-01-15T11:40:20;78.90;;;30.95;;
44276;SDS011;29973;43.742;1.236;2024-01-15T11:42:46;80.25;;;32.22;;
44276;SDS011;29973;43.742;1.236;2024-01-15T11:45:13;73.53;;;31.10;;
44276;SDS011;29973;43.742;1.236;2024-01-15T11:50:27;71.28;;;31.60;;
44276;SDS011;29973;43.742;1.236;2024-01-15T11:53:02;74.15;;;29.98;;
44276;SDS011;29973;43.742;1.236;2024-01-15T11:55:36;67.32;;;29.92;;
44276;SDS011;29973;43.742;1.236;2024-01-15T11:58:10;72.18;;;29.60;;
44276;SDS011;29973;43.742;1.236;2024-01-15T12:00:47;74.82;;;29.77;;
44276;SDS011;29973;43.742;1.236;2024-01-15T12:03:14;72.13;;;29.45;;
44276;SDS011;29973;43.742;1.236;2024-01-15T12:05:40;83.65;;;33.58;;
44276;SDS011;29973;43.742;1.236;2024-01-15T12:08:09;74.78;;;31.70;;
44276;SDS011;29973;43.742;1.236;2024-01-15T12:10:37;81.30;;;34.10;;
44276;SDS011;29973;43.742;1.236;2024-01-15T12:13:11;75.43;;;31.95;;
44276;SDS011;29973;43.742;1.236;2024-01-15T12:15:38;74.88;;;31.70;;
44276;SDS011;29973;43.742;1.236;2024-01-15T12:18:08;72.00;;;30.48;;
44276;SDS011;29973;43.742;1.236;2024-01-15T12:20:35;72.20;;;30.23;;
44276;SDS011;29973;43.742;1.236;2024-01-15T12:23:01;82.25;;;29.60;;
44276;SDS011;29973;43.742;1.236;2024-01-15T12:25:35;83.18;;;31.20;;
44276;SDS011;29973;43.742;1.236;2024-01-15T12:28:01;76.13;;;32.75;;
44276;SDS011;29973;43.742;1.236;2024-01-15T12:30:27;83.68;;;33.53;;
44276;SDS011;29973;43.742;1.236;2024-01-15T12:32:54;82.95;;;32.75;;
44276;SDS011;29973;43.742;1.236;2024-01-15T12:35:20;81.60;;;32.80;;
44276;SDS011;29973;43.742;1.236;2024-01-15T12:37:46;78.82;;;32.20;;
44276;SDS011;29973;43.742;1.236;2024-01-15T12:40:13;71.40;;;29.17;;
44276;SDS011;29973;43.742;1.236;2024-01-15T12:42:43;79.40;;;31.42;;
44276;SDS011;29973;43.742;1.236;2024-01-15T12:45:09;68.78;;;30.98;;
44276;SDS011;29973;43.742;1.236;2024-01-15T12:47:37;66.10;;;28.45;;
44276;SDS011;29973;43.742;1.236;2024-01-15T12:50:10;70.95;;;30.40;;
44276;SDS011;29973;43.742;1.236;2024-01-15T12:52:37;59.92;;;26.63;;
44276;SDS011;29973;43.742;1.236;2024-01-15T12:55:05;49.70;;;25.40;;
44276;SDS011;29973;43.742;1.236;2024-01-15T12:57:32;51.40;;;25.70;;
44276;SDS011;29973;43.742;1.236;2024-01-15T12:59:57;43.20;;;22.13;;
44276;SDS011;29973;43.742;1.236;2024-01-15T13:02:23;55.13;;;24.95;;
44276;SDS011;29973;43.742;1.236;2024-01-15T13:04:49;42.80;;;22.02;;
44276;SDS011;29973;43.742;1.236;2024-01-15T13:07:15;29.88;;;18.40;;
44276;SDS011;29973;43.742;1.236;2024-01-15T13:09:40;40.75;;;22.88;;
44276;SDS011;29973;43.742;1.236;2024-01-15T13:12:06;40.30;;;21.58;;
44276;SDS011;29973;43.742;1.236;2024-01-15T13:14:32;37.30;;;21.75;;
44276;SDS011;29973;43.742;1.236;2024-01-15T13:16:58;32.38;;;19.83;;
44276;SDS011;29973;43.742;1.236;2024-01-15T13:19:24;37.53;;;20.48;;
44276;SDS011;29973;43.742;1.236;2024-01-15T13:21:50;42.13;;;23.40;;
44276;SDS011;29973;43.742;1.236;2024-01-15T13:24:16;35.85;;;21.08;;
44276;SDS011;29973;43.742;1.236;2024-01-15T13:26:42;34.58;;;21.42;;
44276;SDS011;29973;43.742;1.236;2024-01-15T13:29:08;39.88;;;22.83;;
44276;SDS011;29973;43.742;1.236;2024-01-15T13:31:34;30.58;;;19.48;;
44276;SDS011;29973;43.742;1.236;2024-01-15T13:34:00;36.75;;;19.30;;
44276;SDS011;29973;43.742;1.236;2024-01-15T13:36:26;28.02;;;17.10;;
44276;SDS011;29973;43.742;1.236;2024-01-15T13:38:52;26.48;;;16.33;;
44276;SDS011;29973;43.742;1.236;2024-01-15T13:41:19;23.15;;;14.77;;
44276;SDS011;29973;43.742;1.236;2024-01-15T13:43:55;25.00;;;15.55;;
44276;SDS011;29973;43.742;1.236;2024-01-15T13:46:23;28.10;;;15.75;;
44276;SDS011;29973;43.742;1.236;2024-01-15T13:48:49;19.63;;;12.32;;
44276;SDS011;29973;43.742;1.236;2024-01-15T13:51:15;13.52;;;9.73;;
44276;SDS011;29973;43.742;1.236;2024-01-15T13:53:40;10.80;;;8.93;;
44276;SDS011;29973;43.742;1.236;2024-01-15T13:56:08;10.20;;;9.05;;
44276;SDS011;29973;43.742;1.236;2024-01-15T13:58:35;10.55;;;8.43;;
44276;SDS011;29973;43.742;1.236;2024-01-15T14:01:01;12.95;;;9.95;;
44276;SDS011;29973;43.742;1.236;2024-01-15T14:03:29;11.18;;;9.25;;
44276;SDS011;29973;43.742;1.236;2024-01-15T14:05:55;14.38;;;10.35;;
44276;SDS011;29973;43.742;1.236;2024-01-15T14:08:20;11.45;;;9.95;;
44276;SDS011;29973;43.742;1.236;2024-01-15T14:10:46;11.07;;;9.88;;
44276;SDS011;29973;43.742;1.236;2024-01-15T14:13:12;17.42;;;10.68;;
44276;SDS011;29973;43.742;1.236;2024-01-15T14:15:37;31.65;;;16.10;;
44276;SDS011;29973;43.742;1.236;2024-01-15T14:18:03;20.15;;;13.13;;
44276;SDS011;29973;43.742;1.236;2024-01-15T14:20:29;19.50;;;12.80;;
44276;SDS011;29973;43.742;1.236;2024-01-15T14:22:54;20.60;;;15.20;;